createdAt,value
2022-09-25T00:01:06.273Z,12.40
2022-09-25T00:03:34.290Z,12.40
2022-09-25T00:06:04.153Z,12.40
2022-09-25T00:08:31.945Z,12.40
2022-09-25T00:10:59.837Z,12.30
2022-09-25T00:13:28.039Z,12.30
2022-09-25T00:16:00.164Z,12.30
2022-09-25T00:18:45.744Z,12.30
2022-09-25T00:21:16.722Z,12.20
2022-09-25T00:23:45.715Z,12.20
2022-09-25T00:26:15.074Z,12.20
2022-09-25T00:28:43.930Z,12.20
2022-09-25T00:31:19.822Z,12.20
2022-09-25T00:33:47.929Z,12.20
2022-09-25T00:36:15.877Z,12.20
2022-09-25T00:38:46.201Z,12.10
2022-09-25T00:41:14.149Z,12.10
2022-09-25T00:43:44.535Z,12.10
2022-09-25T00:46:17.736Z,12.10
2022-09-25T00:48:51.011Z,12.10
2022-09-25T00:51:22.890Z,12.10
2022-09-25T00:53:51.416Z,12.20
2022-09-25T00:56:19.681Z,12.10
2022-09-25T00:58:48.732Z,12.10
2022-09-25T01:01:18.716Z,12.10
2022-09-25T01:03:46.771Z,12.10
2022-09-25T01:06:16.379Z,12.10
2022-09-25T01:08:46.161Z,12.00
2022-09-25T01:11:14.001Z,12.00
2022-09-25T01:13:41.930Z,12.00
2022-09-25T01:16:17.237Z,12.00
2022-09-25T01:19:01.876Z,12.00
2022-09-25T01:21:37.770Z,12.00
2022-09-25T01:24:24.449Z,12.00
2022-09-25T01:27:13.234Z,11.90
2022-09-25T01:29:48.861Z,11.90
2022-09-25T01:32:22.152Z,11.90
2022-09-25T01:34:57.883Z,11.90
2022-09-25T01:37:29.893Z,11.90
2022-09-25T01:40:05.482Z,11.80
2022-09-25T01:42:38.960Z,11.80
2022-09-25T01:45:13.052Z,11.80
2022-09-25T01:47:41.991Z,11.70
2022-09-25T01:50:14.774Z,11.60
2022-09-25T01:52:47.682Z,11.60
2022-09-25T01:55:22.296Z,11.60
2022-09-25T01:57:54.861Z,11.60
2022-09-25T02:00:26.069Z,11.60
2022-09-25T02:02:57.584Z,11.60
2022-09-25T02:05:31.288Z,11.60
2022-09-25T02:08:02.955Z,11.60
2022-09-25T02:10:35.105Z,11.60
2022-09-25T02:13:08.466Z,11.60
2022-09-25T02:15:41.304Z,11.50
2022-09-25T02:18:29.462Z,11.50
2022-09-25T02:21:03.244Z,11.50
2022-09-25T02:23:42.573Z,11.50
2022-09-25T02:26:17.476Z,11.50
2022-09-25T02:28:45.354Z,11.50
2022-09-25T02:31:16.846Z,11.50
2022-09-25T02:33:45.503Z,11.50
2022-09-25T02:36:19.071Z,11.50
2022-09-25T02:38:49.906Z,11.50
2022-09-25T02:41:26.268Z,11.50
2022-09-25T02:44:05.400Z,11.50
2022-09-25T02:46:44.190Z,11.50
2022-09-25T02:49:19.727Z,11.50
2022-09-25T02:51:55.834Z,11.50
2022-09-25T02:54:30.764Z,11.50
2022-09-25T02:57:07.187Z,11.50
2022-09-25T02:59:39.209Z,11.50
2022-09-25T03:02:11.748Z,11.50
2022-09-25T03:04:41.152Z,11.60
2022-09-25T03:07:09.481Z,11.60
2022-09-25T03:09:39.266Z,11.60
2022-09-25T03:12:07.527Z,11.60
2022-09-25T03:14:35.580Z,11.70
2022-09-25T03:17:06.636Z,11.70
2022-09-25T03:19:35.977Z,11.70
2022-09-25T03:22:03.910Z,11.70
2022-09-25T03:24:31.758Z,11.70
2022-09-25T03:26:59.938Z,11.70
2022-09-25T03:29:29.823Z,11.80
2022-09-25T03:31:57.677Z,11.90
2022-09-25T03:34:25.711Z,11.90
2022-09-25T03:36:54.948Z,11.80
2022-09-25T03:39:23.075Z,11.90
2022-09-25T03:41:51.192Z,11.90
2022-09-25T03:44:19.010Z,11.90
2022-09-25T03:46:46.838Z,11.80
2022-09-25T03:49:14.700Z,11.90
2022-09-25T03:51:43.084Z,11.90
2022-09-25T03:54:12.452Z,11.90
2022-09-25T03:56:40.682Z,11.90
2022-09-25T03:59:08.601Z,12.00
2022-09-25T04:01:37.009Z,12.10
2022-09-25T04:04:05.118Z,12.00
2022-09-25T04:06:33.034Z,12.00
2022-09-25T04:09:00.895Z,12.00
2022-09-25T04:11:30.296Z,12.00
2022-09-25T04:13:58.156Z,11.90
2022-09-25T04:16:27.390Z,12.00
2022-09-25T04:18:55.334Z,11.90
2022-09-25T04:21:23.134Z,11.90
2022-09-25T04:24:05.408Z,11.80
2022-09-25T04:26:35.310Z,11.90
2022-09-25T04:29:03.802Z,11.80
2022-09-25T04:31:32.446Z,11.80
2022-09-25T04:33:59.433Z,11.80
2022-09-25T04:36:27.432Z,11.90
2022-09-25T04:38:55.397Z,11.70
2022-09-25T04:41:23.554Z,11.70
2022-09-25T04:43:53.006Z,11.70
2022-09-25T04:46:22.628Z,11.70
2022-09-25T04:48:51.748Z,11.70
2022-09-25T04:51:20.024Z,11.70
2022-09-25T04:53:47.939Z,11.70
2022-09-25T04:56:17.049Z,11.70
2022-09-25T04:58:46.581Z,11.60
2022-09-25T05:01:16.948Z,11.60
2022-09-25T05:03:45.079Z,11.50
2022-09-25T05:06:13.056Z,11.60
2022-09-25T05:08:40.930Z,11.50
2022-09-25T05:11:08.948Z,11.50
2022-09-25T05:13:36.966Z,11.50
2022-09-25T05:16:04.942Z,11.50
2022-09-25T05:18:34.373Z,11.50
2022-09-25T05:21:05.479Z,11.50
2022-09-25T05:23:33.432Z,11.50
2022-09-25T05:26:02.274Z,11.50
2022-09-25T05:28:30.767Z,11.50
2022-09-25T05:31:03.448Z,11.60
2022-09-25T05:33:31.979Z,11.50
2022-09-25T05:36:03.219Z,11.50
2022-09-25T05:38:34.355Z,11.40
2022-09-25T05:41:05.039Z,11.40
2022-09-25T05:43:33.678Z,11.40
2022-09-25T05:46:01.605Z,11.40
2022-09-25T05:48:29.532Z,11.40
2022-09-25T05:50:58.704Z,11.40
2022-09-25T05:53:28.437Z,11.40
2022-09-25T05:55:59.262Z,11.40
2022-09-25T05:58:27.999Z,11.50
2022-09-25T06:00:56.627Z,11.50
2022-09-25T06:03:24.544Z,11.50
2022-09-25T06:05:52.631Z,11.50
2022-09-25T06:08:21.018Z,11.60
2022-09-25T06:10:55.166Z,11.60
2022-09-25T06:13:24.567Z,11.70
2022-09-25T06:15:53.903Z,11.70
2022-09-25T06:18:23.316Z,11.80
2022-09-25T06:20:59.837Z,11.80
2022-09-25T06:23:27.709Z,11.90
2022-09-25T06:26:01.808Z,12.00
2022-09-25T06:28:30.962Z,12.10
2022-09-25T06:31:01.583Z,12.10
2022-09-25T06:33:29.786Z,12.10
2022-09-25T06:35:57.679Z,12.20
2022-09-25T06:38:26.072Z,12.30
2022-09-25T06:40:54.958Z,12.40
2022-09-25T06:43:27.876Z,12.40
2022-09-25T06:45:55.845Z,12.50
2022-09-25T06:48:23.720Z,12.50
2022-09-25T06:50:53.677Z,12.50
2022-09-25T06:53:23.699Z,12.60
2022-09-25T06:55:51.673Z,12.60
2022-09-25T06:58:22.106Z,12.60
2022-09-25T07:00:53.668Z,12.60
2022-09-25T07:03:39.754Z,12.70
2022-09-25T07:06:10.747Z,12.80
2022-09-25T07:08:39.431Z,12.80
2022-09-25T07:11:08.055Z,12.90
2022-09-25T07:13:37.130Z,12.90
2022-09-25T07:16:08.332Z,13.00
2022-09-25T07:18:36.425Z,13.10
2022-09-25T07:21:07.753Z,13.10
2022-09-25T07:23:36.193Z,13.10
2022-09-25T07:26:09.483Z,13.10
2022-09-25T07:28:37.878Z,13.20
2022-09-25T07:31:19.250Z,13.30
2022-09-25T07:33:47.511Z,13.30
2022-09-25T07:36:17.284Z,13.30
2022-09-25T07:38:46.222Z,13.30
2022-09-25T07:41:14.427Z,13.40
2022-09-25T07:43:43.665Z,13.30
2022-09-25T07:46:12.345Z,13.40
2022-09-25T07:48:42.501Z,13.50
2022-09-25T07:51:12.764Z,13.40
2022-09-25T07:53:42.749Z,13.50
2022-09-25T07:56:12.137Z,13.50
2022-09-25T07:58:40.371Z,13.40
2022-09-25T08:01:11.068Z,13.50
2022-09-25T08:03:39.339Z,13.50
2022-09-25T08:06:11.786Z,13.60
2022-09-25T08:08:40.787Z,13.60
2022-09-25T08:11:11.359Z,13.70
2022-09-25T08:13:40.375Z,13.90
2022-09-25T08:16:11.488Z,14.00
2022-09-25T08:18:41.459Z,14.00
2022-09-25T08:21:14.455Z,14.20
2022-09-25T08:23:47.481Z,14.20
2022-09-25T08:26:16.219Z,14.30
2022-09-25T08:28:45.111Z,14.40
2022-09-25T08:31:14.565Z,14.50
2022-09-25T08:33:45.863Z,14.60
2022-09-25T08:36:16.138Z,14.80
2022-09-25T08:38:44.374Z,15.00
2022-09-25T08:41:18.866Z,15.00
2022-09-25T08:43:56.135Z,15.00
2022-09-25T08:46:46.422Z,15.10
2022-09-25T08:49:15.448Z,15.10
2022-09-25T08:51:50.048Z,15.10
2022-09-25T08:54:23.734Z,15.10
2022-09-25T08:56:53.703Z,15.20
2022-09-25T08:59:28.560Z,15.10
2022-09-25T09:02:00.299Z,15.10
2022-09-25T09:04:32.005Z,15.20
2022-09-25T09:07:26.275Z,15.10
2022-09-25T09:10:04.245Z,15.10
2022-09-25T09:12:40.167Z,15.10
2022-09-25T09:15:22.517Z,15.10
2022-09-25T09:17:54.349Z,15.10
2022-09-25T09:20:29.308Z,15.10
2022-09-25T09:22:59.907Z,15.10
2022-09-25T09:25:32.389Z,15.20
2022-09-25T09:28:25.359Z,15.20
2022-09-25T09:31:02.099Z,15.20
2022-09-25T09:33:44.967Z,15.20
2022-09-25T09:36:21.044Z,15.20
2022-09-25T09:38:58.685Z,15.20
2022-09-25T09:41:38.634Z,15.20
2022-09-25T09:44:23.039Z,15.10
2022-09-25T09:46:59.490Z,15.20
2022-09-25T09:49:34.463Z,15.20
2022-09-25T09:52:09.120Z,15.20
2022-09-25T09:54:44.522Z,15.20
2022-09-25T09:57:17.128Z,15.20
2022-09-25T09:59:50.216Z,15.20
2022-09-25T10:02:41.278Z,15.30
2022-09-25T10:05:39.028Z,15.40
2022-09-25T10:08:06.921Z,15.50
2022-09-25T10:10:38.604Z,15.50
2022-09-25T10:13:14.679Z,15.60
2022-09-25T10:15:46.102Z,15.70
2022-09-25T10:18:15.705Z,15.70
2022-09-25T10:20:47.410Z,15.70
2022-09-25T10:23:26.057Z,15.70
2022-09-25T10:26:45.569Z,15.70
2022-09-25T10:29:37.071Z,15.80
2022-09-25T10:32:05.730Z,15.80
2022-09-25T10:34:35.340Z,15.80
2022-09-25T10:37:20.316Z,16.00
2022-09-25T10:40:02.796Z,16.00
2022-09-25T10:42:38.805Z,15.90
2022-09-25T10:45:32.383Z,15.90
2022-09-25T10:48:18.069Z,15.90
2022-09-25T10:51:08.282Z,16.00
2022-09-25T10:53:37.095Z,16.00
2022-09-25T10:56:07.441Z,16.10
2022-09-25T10:58:41.448Z,16.20
2022-09-25T11:01:13.788Z,16.10
2022-09-25T11:03:55.115Z,16.20
2022-09-25T11:06:26.096Z,16.10
2022-09-25T11:09:05.302Z,16.10
2022-09-25T11:11:33.473Z,16.10
2022-09-25T11:14:04.678Z,16.20
2022-09-25T11:16:49.475Z,16.30
2022-09-25T11:19:22.489Z,16.30
2022-09-25T11:22:00.118Z,16.40
2022-09-25T11:24:40.729Z,16.50
2022-09-25T11:27:14.181Z,16.40
2022-09-25T11:29:50.278Z,16.30
2022-09-25T11:32:27.627Z,16.40
2022-09-25T11:35:05.096Z,16.20
2022-09-25T11:37:40.599Z,16.20
2022-09-25T11:40:57.850Z,16.30
2022-09-25T11:43:39.056Z,16.40
2022-09-25T11:46:15.428Z,16.40
2022-09-25T11:48:55.543Z,16.50
2022-09-25T11:51:45.795Z,16.50
2022-09-25T11:54:53.468Z,16.50
2022-09-25T11:57:34.265Z,16.50
2022-09-25T12:00:22.151Z,16.70
2022-09-25T12:03:11.834Z,16.60
2022-09-25T12:05:54.596Z,16.80
2022-09-25T12:08:41.726Z,16.90
2022-09-25T12:11:20.249Z,17.10
2022-09-25T12:13:56.987Z,17.20
2022-09-25T12:16:37.146Z,17.30
2022-09-25T12:19:23.589Z,17.40
2022-09-25T12:22:01.533Z,17.50
2022-09-25T12:24:45.264Z,17.50
2022-09-25T12:27:21.035Z,17.50
2022-09-25T12:30:06.794Z,17.50
2022-09-25T12:32:54.992Z,17.50
2022-09-25T12:35:35.175Z,17.40
2022-09-25T12:38:11.185Z,17.50
2022-09-25T12:40:44.848Z,17.50
2022-09-25T12:43:26.125Z,17.30
2022-09-25T12:45:59.166Z,17.20
2022-09-25T12:48:34.530Z,17.20
2022-09-25T12:51:08.194Z,17.00
2022-09-25T12:53:41.413Z,16.80
2022-09-25T12:56:15.414Z,16.70
2022-09-25T12:59:05.299Z,16.50
2022-09-25T13:01:41.879Z,16.20
2022-09-25T13:04:35.314Z,15.90
2022-09-25T13:07:10.141Z,15.90
2022-09-25T13:09:44.883Z,15.90
2022-09-25T13:12:22.739Z,16.00
2022-09-25T13:14:54.160Z,16.00
2022-09-25T13:17:22.847Z,16.10
2022-09-25T13:19:50.815Z,16.20
2022-09-25T13:22:24.678Z,16.30
2022-09-25T13:24:59.235Z,16.20
2022-09-25T13:27:28.505Z,16.30
2022-09-25T13:30:01.810Z,16.20
2022-09-25T13:32:34.756Z,16.20
2022-09-25T13:35:05.809Z,16.30
2022-09-25T13:37:36.571Z,16.20
2022-09-25T13:40:35.526Z,16.30
2022-09-25T13:43:21.514Z,16.20
2022-09-25T13:46:10.142Z,16.20
2022-09-25T13:48:38.724Z,16.10
2022-09-25T13:51:35.047Z,16.30
2022-09-25T13:54:04.560Z,16.30
2022-09-25T13:56:49.507Z,16.40
2022-09-25T13:59:39.834Z,16.40
2022-09-25T14:02:43.756Z,16.50
2022-09-25T14:05:18.336Z,16.60
2022-09-25T14:07:48.619Z,16.50
2022-09-25T14:10:19.002Z,16.60
2022-09-25T14:12:50.624Z,16.60
2022-09-25T14:15:26.539Z,16.40
2022-09-25T14:17:57.272Z,16.30
2022-09-25T14:20:33.384Z,16.30
2022-09-25T14:23:05.924Z,16.30
2022-09-25T14:25:37.300Z,16.30
2022-09-25T14:28:20.740Z,16.40
2022-09-25T14:31:15.055Z,16.40
2022-09-25T14:34:06.240Z,16.40
2022-09-25T14:36:43.848Z,16.50
2022-09-25T14:39:30.125Z,16.60
2022-09-25T14:42:24.987Z,16.60
2022-09-25T14:45:25.733Z,16.60
2022-09-25T14:48:00.486Z,16.60
2022-09-25T14:50:32.843Z,16.70
2022-09-25T14:53:08.306Z,16.70
2022-09-25T14:55:39.166Z,16.80
2022-09-25T14:58:10.562Z,16.80
2022-09-25T15:00:46.767Z,16.90
2022-09-25T15:03:19.859Z,16.90
2022-09-25T15:05:49.138Z,17.00
2022-09-25T15:08:24.076Z,17.10
2022-09-25T15:11:03.287Z,17.10
2022-09-25T15:13:34.458Z,17.00
2022-09-25T15:16:20.902Z,16.80
2022-09-25T15:18:54.784Z,16.80
2022-09-25T15:21:27.751Z,16.70
2022-09-25T15:23:58.585Z,16.70
2022-09-25T15:26:29.022Z,16.70
2022-09-25T15:28:57.438Z,16.70
2022-09-25T15:31:25.525Z,16.80
2022-09-25T15:34:11.495Z,16.70
2022-09-25T15:36:39.729Z,16.80
2022-09-25T15:39:14.366Z,16.70
2022-09-25T15:41:44.269Z,16.70
2022-09-25T15:44:20.494Z,16.70
2022-09-25T15:46:50.789Z,16.70
2022-09-25T15:49:26.828Z,16.70
2022-09-25T15:52:01.471Z,16.60
2022-09-25T15:54:35.987Z,16.60
2022-09-25T15:57:07.130Z,16.50
2022-09-25T16:00:01.254Z,16.50
2022-09-25T16:02:52.020Z,16.40
2022-09-25T16:05:28.413Z,16.40
2022-09-25T16:08:17.138Z,16.30
2022-09-25T16:10:50.165Z,16.30
2022-09-25T16:13:23.789Z,16.20
2022-09-25T16:15:53.098Z,16.20
2022-09-25T16:18:35.258Z,16.30
2022-09-25T16:21:22.131Z,16.30
2022-09-25T16:23:56.560Z,16.20
2022-09-25T16:26:27.818Z,16.10
2022-09-25T16:29:05.794Z,16.10
2022-09-25T16:31:36.290Z,16.00
2022-09-25T16:34:05.650Z,16.00
2022-09-25T16:36:42.211Z,16.00
2022-09-25T16:39:24.634Z,16.00
2022-09-25T16:41:53.235Z,16.00
2022-09-25T16:44:23.158Z,15.90
2022-09-25T16:47:14.279Z,15.90
2022-09-25T16:49:46.080Z,15.90
2022-09-25T16:52:26.286Z,15.90
2022-09-25T16:54:56.777Z,15.80
2022-09-25T16:57:27.782Z,15.80
2022-09-25T16:59:55.935Z,15.70
2022-09-25T17:02:33.279Z,15.70
2022-09-25T17:05:03.810Z,15.70
2022-09-25T17:07:33.254Z,15.70
2022-09-25T17:10:02.261Z,15.70
2022-09-25T17:12:32.514Z,15.70
2022-09-25T17:15:00.828Z,15.70
2022-09-25T17:17:29.704Z,15.60
2022-09-25T17:19:57.681Z,15.60
2022-09-25T17:22:31.141Z,15.50
2022-09-25T17:25:34.958Z,15.50
2022-09-25T17:28:03.423Z,15.40
2022-09-25T17:30:31.382Z,15.30
2022-09-25T17:32:59.297Z,15.20
2022-09-25T17:35:38.038Z,15.20
2022-09-25T17:38:06.110Z,15.10
2022-09-25T17:40:35.944Z,15.10
2022-09-25T17:43:06.067Z,15.00
2022-09-25T17:45:48.699Z,15.00
2022-09-25T17:48:18.873Z,15.00
2022-09-25T17:50:47.050Z,15.00
2022-09-25T17:53:18.983Z,15.20
2022-09-25T17:55:53.424Z,15.20
2022-09-25T17:58:23.581Z,15.50
2022-09-25T18:00:52.438Z,15.30
2022-09-25T18:03:22.538Z,15.30
2022-09-25T18:05:50.567Z,15.10
2022-09-25T18:08:19.043Z,15.10
2022-09-25T18:10:49.918Z,15.00
2022-09-25T18:13:20.396Z,15.00
2022-09-25T18:15:50.803Z,15.00
2022-09-25T18:18:18.729Z,14.90
2022-09-25T18:21:08.880Z,14.90
2022-09-25T18:23:38.586Z,14.90
2022-09-25T18:26:10.137Z,14.80
2022-09-25T18:28:38.588Z,14.80
2022-09-25T18:31:07.335Z,14.80
2022-09-25T18:33:35.345Z,14.70
2022-09-25T18:36:03.383Z,14.60
2022-09-25T18:38:31.308Z,14.60
2022-09-25T18:41:02.240Z,14.60
2022-09-25T18:43:31.850Z,14.50
2022-09-25T18:46:00.866Z,14.50
2022-09-25T18:48:29.299Z,14.40
2022-09-25T18:50:57.145Z,14.40
2022-09-25T18:53:25.115Z,14.30
2022-09-25T18:55:54.900Z,14.20
2022-09-25T18:58:23.343Z,14.20
2022-09-25T19:00:53.142Z,14.20
2022-09-25T19:03:21.078Z,14.20
2022-09-25T19:05:58.103Z,14.10
2022-09-25T19:08:26.307Z,14.10
2022-09-25T19:10:54.177Z,14.20
2022-09-25T19:13:22.188Z,14.10
2022-09-25T19:15:50.181Z,14.10
2022-09-25T19:18:19.514Z,14.10
2022-09-25T19:20:51.831Z,14.10
2022-09-25T19:23:20.169Z,14.10
2022-09-25T19:25:56.315Z,14.20
2022-09-25T19:28:24.679Z,14.10
2022-09-25T19:30:59.982Z,14.10
2022-09-25T19:33:32.334Z,14.10
2022-09-25T19:36:01.178Z,14.10
2022-09-25T19:38:33.644Z,14.10
2022-09-25T19:41:02.438Z,14.10
2022-09-25T19:43:34.816Z,14.10
2022-09-25T19:46:04.519Z,14.10
2022-09-25T19:48:36.037Z,14.00
2022-09-25T19:51:07.402Z,14.00
2022-09-25T19:53:35.851Z,14.00
2022-09-25T19:56:03.858Z,13.90
2022-09-25T19:58:36.302Z,13.90
2022-09-25T20:01:04.847Z,13.90
2022-09-25T20:03:36.831Z,13.80
2022-09-25T20:06:05.854Z,13.70
2022-09-25T20:08:34.221Z,13.80
2022-09-25T20:11:10.924Z,13.80
2022-09-25T20:13:39.820Z,13.70
2022-09-25T20:16:09.227Z,13.60
2022-09-25T20:18:38.932Z,13.70
2022-09-25T20:21:08.510Z,13.70
2022-09-25T20:23:36.811Z,13.70
2022-09-25T20:26:09.709Z,13.70
2022-09-25T20:28:38.080Z,13.60
2022-09-25T20:31:07.340Z,13.60
2022-09-25T20:33:36.383Z,13.60
2022-09-25T20:36:07.875Z,13.60
2022-09-25T20:38:37.033Z,13.60
2022-09-25T20:41:06.528Z,13.50
2022-09-25T20:43:34.964Z,13.50
2022-09-25T20:46:04.885Z,13.50
2022-09-25T20:48:36.275Z,13.50
2022-09-25T20:51:06.692Z,13.50
2022-09-25T20:53:34.830Z,13.50
2022-09-25T20:56:06.329Z,13.50
2022-09-25T20:58:34.311Z,13.40
2022-09-25T21:01:03.483Z,13.40
2022-09-25T21:03:32.179Z,13.40
2022-09-25T21:06:02.184Z,13.40
2022-09-25T21:08:32.304Z,13.40
2022-09-25T21:11:01.780Z,13.30
2022-09-25T21:13:30.028Z,13.30
2022-09-25T21:16:05.546Z,13.30
2022-09-25T21:18:35.338Z,13.30
2022-09-25T21:21:04.121Z,13.20
2022-09-25T21:23:33.979Z,13.20
2022-09-25T21:26:07.278Z,13.30
2022-09-25T21:28:35.448Z,13.30
2022-09-25T21:31:05.542Z,13.30
2022-09-25T21:33:33.788Z,13.30
2022-09-25T21:36:02.260Z,13.30
2022-09-25T21:38:31.395Z,13.30
2022-09-25T21:41:03.844Z,13.30
2022-09-25T21:43:33.166Z,13.30
2022-09-25T21:46:02.689Z,13.30
2022-09-25T21:48:31.262Z,13.30
2022-09-25T21:50:59.841Z,13.30
2022-09-25T21:53:28.058Z,13.30
2022-09-25T21:56:03.050Z,13.30
2022-09-25T21:58:31.591Z,13.30
2022-09-25T22:01:07.760Z,13.30
2022-09-25T22:03:36.775Z,13.30
2022-09-25T22:06:08.625Z,13.30
2022-09-25T22:08:37.609Z,13.30
2022-09-25T22:11:08.272Z,13.30
2022-09-25T22:13:38.061Z,13.30
2022-09-25T22:16:10.808Z,13.30
2022-09-25T22:18:43.649Z,13.30
2022-09-25T22:21:12.708Z,13.30
2022-09-25T22:23:40.804Z,13.40
2022-09-25T22:26:10.530Z,13.40
2022-09-25T22:28:38.955Z,13.40
2022-09-25T22:31:07.891Z,13.40
2022-09-25T22:33:36.154Z,13.40
2022-09-25T22:36:06.245Z,13.50
2022-09-25T22:38:35.340Z,13.50
2022-09-25T22:41:04.729Z,13.50
2022-09-25T22:43:34.339Z,13.50
2022-09-25T22:46:02.492Z,13.50
2022-09-25T22:48:31.082Z,13.60
2022-09-25T22:51:02.048Z,13.60
2022-09-25T22:53:31.654Z,13.50
2022-09-25T22:56:09.622Z,13.60
2022-09-25T22:58:38.962Z,13.60
2022-09-25T23:01:10.225Z,13.60
2022-09-25T23:03:38.286Z,13.60
2022-09-25T23:06:06.780Z,13.60
2022-09-25T23:08:35.036Z,13.60
2022-09-25T23:11:07.461Z,13.60
2022-09-25T23:13:37.355Z,13.70
2022-09-25T23:16:09.237Z,13.60
2022-09-25T23:18:38.464Z,13.60
2022-09-25T23:21:06.548Z,13.60
2022-09-25T23:23:34.464Z,13.60
2022-09-25T23:26:06.142Z,13.70
2022-09-25T23:28:35.221Z,13.70
2022-09-25T23:31:09.702Z,13.70
2022-09-25T23:33:38.086Z,13.70
2022-09-25T23:36:07.487Z,13.60
2022-09-25T23:38:35.729Z,13.70
2022-09-25T23:41:04.230Z,13.70
2022-09-25T23:43:32.123Z,13.70
2022-09-25T23:46:00.309Z,13.70
2022-09-25T23:48:29.665Z,13.70
2022-09-25T23:50:57.470Z,13.80
2022-09-25T23:53:25.667Z,13.70
2022-09-25T23:55:53.674Z,13.70
2022-09-25T23:58:21.494Z,13.70
